Time;durP1;ratioP1;P1;durP2;ratioP2;P2;SDS_P1;SDS_P2;PMS_P1;PMS_P2;Temp;Humidity;BMP_temperature;BMP_pressure;BME280_temperature;BME280_humidity;BME280_pressure;Samples;Min_cycle;Max_cycle;Signal;HPM_P1;HPM_P2
2021/05/09 00:01:32;;;;;;;7.22;5.00;;;18.10;51.70;;;;;;6162848;23;20482;-81
2021/05/09 00:03:57;;;;;;;7.85;4.60;;;18.10;51.70;;;;;;6163040;23;20131;-82
2021/05/09 00:06:23;;;;;;;7.55;4.70;;;18.10;51.70;;;;;;6137813;23;20198;-82
2021/05/09 00:08:50;;;;;;;7.45;4.57;;;18.10;51.70;;;;;;6138703;23;20158;-82
2021/05/09 00:11:15;;;;;;;6.90;4.60;;;18.20;51.50;;;;;;6163173;23;20178;-82
2021/05/09 00:13:42;;;;;;;5.40;4.28;;;18.10;51.60;;;;;;6137937;23;20487;-82
2021/05/09 00:16:09;;;;;;;5.32;4.50;;;18.10;51.60;;;;;;6137877;23;20135;-82
2021/05/09 00:18:34;;;;;;;7.65;4.43;;;18.10;51.60;;;;;;6137622;23;20225;-82
2021/05/09 00:21:03;;;;;;;6.82;4.78;;;18.10;51.70;;;;;;6137649;23;20598;-82
2021/05/09 00:23:29;;;;;;;5.68;4.43;;;18.10;51.70;;;;;;6161935;23;20142;-82
2021/05/09 00:25:55;;;;;;;6.38;4.60;;;18.10;51.60;;;;;;6138264;23;20559;-81
2021/05/09 00:28:20;;;;;;;7.03;4.28;;;18.10;51.60;;;;;;6137296;23;20142;-82
2021/05/09 00:30:47;;;;;;;5.40;4.50;;;18.10;51.70;;;;;;6161968;23;20253;-81
2021/05/09 00:33:14;;;;;;;5.78;4.47;;;18.10;51.70;;;;;;6162092;23;20135;-82
2021/05/09 00:35:40;;;;;;;6.18;4.72;;;18.10;51.70;;;;;;6162144;23;20159;-82
2021/05/09 00:38:06;;;;;;;6.55;4.45;;;18.10;51.70;;;;;;6137943;23;20139;-82
2021/05/09 00:40:34;;;;;;;5.72;4.20;;;18.10;51.70;;;;;;6137705;23;20220;-82
2021/05/09 00:42:59;;;;;;;5.72;4.63;;;18.10;51.70;;;;;;6162379;23;20132;-82
2021/05/09 00:45:25;;;;;;;6.57;4.43;;;18.10;51.70;;;;;;6112724;23;20164;-82
2021/05/09 00:47:59;;;;;;;6.20;4.28;;;18.10;52.50;;;;;;6137165;23;20131;-82
2021/05/09 00:50:25;;;;;;;5.40;4.60;;;18.10;51.70;;;;;;6163544;23;20151;-82
2021/05/09 00:52:50;;;;;;;6.47;4.40;;;18.10;51.70;;;;;;6140177;23;20158;-82
2021/05/09 00:55:16;;;;;;;6.70;4.78;;;18.10;51.70;;;;;;6139396;23;20241;-82
2021/05/09 00:57:44;;;;;;;5.18;4.63;;;18.10;51.70;;;;;;6138825;23;20135;-82
2021/05/09 01:00:12;;;;;;;5.68;4.65;;;18.10;51.70;;;;;;6163814;23;20166;-82
2021/05/09 01:02:40;;;;;;;5.10;4.40;;;18.10;51.70;;;;;;6189746;23;20154;-81
2021/05/09 01:05:06;;;;;;;6.20;4.28;;;18.10;51.70;;;;;;6163745;23;20135;-82
2021/05/09 01:07:33;;;;;;;8.25;4.70;;;18.10;51.60;;;;;;6184602;23;20190;-82
2021/05/09 01:09:59;;;;;;;6.13;4.60;;;18.10;51.70;;;;;;6144101;23;20158;-82
2021/05/09 01:12:26;;;;;;;6.45;4.72;;;18.10;51.60;;;;;;6168881;23;20461;-82
2021/05/09 01:14:52;;;;;;;7.70;4.55;;;18.10;51.70;;;;;;6168940;23;20493;-82
2021/05/09 01:17:18;;;;;;;5.97;4.68;;;18.00;51.60;;;;;;6168732;23;20566;-82
2021/05/09 01:19:44;;;;;;;5.68;4.60;;;18.10;51.70;;;;;;6143881;23;20181;-82
2021/05/09 01:22:11;;;;;;;6.68;4.75;;;18.10;51.70;;;;;;6168251;23;20157;-82
2021/05/09 01:24:40;;;;;;;6.50;4.50;;;18.00;51.70;;;;;;6168498;23;20130;-82
2021/05/09 01:27:07;;;;;;;6.15;4.50;;;18.00;51.70;;;;;;6193716;23;20212;-82
2021/05/09 01:29:34;;;;;;;6.35;4.45;;;18.10;51.70;;;;;;6168248;23;20177;-82
2021/05/09 01:32:01;;;;;;;8.73;5.00;;;18.00;51.70;;;;;;6193085;23;20138;-82
2021/05/09 01:34:33;;;;;;;4.80;3.97;;;18.10;51.60;;;;;;6167850;23;20554;-81
2021/05/09 01:37:00;;;;;;;5.53;4.45;;;18.00;51.50;;;;;;6194009;23;20130;-81
2021/05/09 01:39:35;;;;;;;6.35;4.50;;;18.00;51.70;;;;;;6193820;23;20170;-82
2021/05/09 01:42:02;;;;;;;6.60;4.78;;;18.00;51.70;;;;;;6220452;23;20130;-82
2021/05/09 01:44:29;;;;;;;7.30;4.72;;;18.00;52.40;;;;;;6193812;23;20149;-81
2021/05/09 01:46:56;;;;;;;5.57;4.50;;;18.00;52.40;;;;;;6167690;23;20217;-82
2021/05/09 01:49:22;;;;;;;5.57;4.30;;;18.00;51.80;;;;;;6220387;23;20137;-82
2021/05/09 01:51:55;;;;;;;6.38;4.55;;;18.00;51.80;;;;;;6224995;23;20130;-81
2021/05/09 01:54:22;;;;;;;5.65;4.40;;;18.00;51.70;;;;;;6200131;23;20142;-81
2021/05/09 01:56:57;;;;;;;5.80;4.97;;;18.00;51.70;;;;;;6224036;23;20157;-81
2021/05/09 01:59:23;;;;;;;6.38;4.45;;;18.00;51.70;;;;;;6174614;23;20177;-81
2021/05/09 02:01:57;;;;;;;6.05;4.38;;;18.00;51.80;;;;;;6199428;23;20130;-81
2021/05/09 02:04:24;;;;;;;6.00;4.63;;;18.00;51.70;;;;;;6199003;23;20137;-81
2021/05/09 02:06:50;;;;;;;6.70;5.10;;;18.00;51.90;;;;;;6200014;23;20241;-81
2021/05/09 02:09:16;;;;;;;5.82;4.57;;;18.00;52.00;;;;;;6172811;23;20154;-81
2021/05/09 02:11:42;;;;;;;6.00;4.60;;;18.00;51.90;;;;;;6199825;23;20130;-81
2021/05/09 02:14:12;;;;;;;5.80;4.43;;;18.00;51.70;;;;;;6196645;23;20130;-82
2021/05/09 02:16:38;;;;;;;7.07;4.40;;;18.00;51.70;;;;;;6192999;23;20562;-82
2021/05/09 02:19:12;;;;;;;6.80;4.80;;;18.00;51.80;;;;;;6166844;23;20152;-82
2021/05/09 02:21:39;;;;;;;5.65;4.32;;;18.00;51.80;;;;;;6192711;23;20481;-82
2021/05/09 02:24:07;;;;;;;5.05;4.40;;;18.00;51.90;;;;;;6192211;23;20131;-82
2021/05/09 02:26:41;;;;;;;5.35;4.45;;;18.00;51.90;;;;;;6167690;23;20673;-82
2021/05/09 02:29:10;;;;;;;6.97;4.90;;;18.00;51.90;;;;;;6192580;23;20134;-81
2021/05/09 02:31:36;;;;;;;5.68;4.93;;;18.00;52.00;;;;;;6191788;23;20161;-81
2021/05/09 02:34:03;;;;;;;5.55;4.85;;;18.00;52.00;;;;;;6192144;23;20131;-81
2021/05/09 02:36:29;;;;;;;5.57;4.38;;;18.00;51.80;;;;;;6192127;23;20193;-81
2021/05/09 02:38:56;;;;;;;6.03;4.78;;;17.90;51.80;;;;;;6192096;23;20130;-81
2021/05/09 02:41:22;;;;;;;7.63;4.93;;;18.00;51.70;;;;;;6167279;23;20174;-81
2021/05/09 02:43:48;;;;;;;4.95;4.25;;;17.90;51.90;;;;;;6192304;23;20566;-81
2021/05/09 02:46:14;;;;;;;6.10;4.45;;;17.90;51.80;;;;;;6141918;23;20148;-81
2021/05/09 02:48:39;;;;;;;5.53;4.28;;;17.90;51.70;;;;;;6192012;23;20154;-81
2021/05/09 02:51:05;;;;;;;5.80;4.68;;;18.00;51.90;;;;;;6191719;23;20473;-81
2021/05/09 02:53:31;;;;;;;5.78;4.47;;;18.00;51.90;;;;;;6167189;23;20146;-81
2021/05/09 02:55:57;;;;;;;6.47;4.53;;;18.00;51.80;;;;;;6191619;23;20138;-81
2021/05/09 02:58:31;;;;;;;5.78;4.50;;;18.00;51.70;;;;;;6142174;23;20153;-81
2021/05/09 03:00:57;;;;;;;6.30;5.05;;;17.90;51.80;;;;;;6191423;23;20216;-81
2021/05/09 03:03:23;;;;;;;6.55;4.43;;;18.00;52.00;;;;;;6191262;23;20138;-81
2021/05/09 03:05:50;;;;;;;6.60;4.30;;;17.90;51.80;;;;;;6142088;23;20153;-81
2021/05/09 03:08:17;;;;;;;5.60;4.45;;;17.90;51.80;;;;;;6141487;23;20577;-81
2021/05/09 03:10:52;;;;;;;6.78;4.45;;;17.90;52.40;;;;;;6142221;23;20158;-81
2021/05/09 03:13:18;;;;;;;6.95;4.65;;;17.90;51.90;;;;;;6166395;23;20156;-81
2021/05/09 03:15:43;;;;;;;5.18;4.30;;;17.90;51.90;;;;;;6191512;23;20139;-81
2021/05/09 03:18:10;;;;;;;7.13;4.47;;;17.90;51.90;;;;;;6191152;23;20138;-81
2021/05/09 03:20:44;;;;;;;5.18;4.25;;;17.90;51.90;;;;;;6191541;23;20250;-81
2021/05/09 03:23:11;;;;;;;6.22;4.63;;;17.90;51.90;;;;;;6166330;23;20150;-81
2021/05/09 03:25:38;;;;;;;6.03;4.20;;;17.90;51.90;;;;;;6165950;23;20177;-81
2021/05/09 03:28:04;;;;;;;5.95;4.50;;;17.90;51.90;;;;;;6191899;23;20597;-81
2021/05/09 03:30:30;;;;;;;4.68;4.18;;;17.90;51.90;;;;;;6142268;23;20150;-81
2021/05/09 03:32:56;;;;;;;4.88;4.13;;;17.90;51.90;;;;;;6191732;23;20532;-81
2021/05/09 03:35:23;;;;;;;6.40;4.40;;;17.90;51.90;;;;;;6142302;23;20154;-81
2021/05/09 03:37:50;;;;;;;6.22;4.25;;;17.90;51.90;;;;;;6166288;23;20154;-81
2021/05/09 03:40:17;;;;;;;5.57;4.40;;;17.90;51.90;;;;;;6191927;23;20213;-81
2021/05/09 03:42:45;;;;;;;4.50;3.85;;;17.90;51.80;;;;;;6168401;23;20155;-81
2021/05/09 03:45:14;;;;;;;5.00;3.90;;;17.90;51.80;;;;;;6192482;23;20130;-81
2021/05/09 03:47:48;;;;;;;6.38;4.30;;;17.90;51.80;;;;;;6167756;23;20146;-81
2021/05/09 03:50:14;;;;;;;6.28;4.50;;;17.90;51.90;;;;;;6192175;23;20129;-81
2021/05/09 03:52:40;;;;;;;6.63;4.45;;;17.90;52.00;;;;;;6143292;23;20158;-82
2021/05/09 03:55:09;;;;;;;5.43;4.20;;;17.90;52.00;;;;;;6168575;23;20240;-81
2021/05/09 03:57:36;;;;;;;6.18;4.50;;;17.90;51.90;;;;;;6168759;23;20176;-81
2021/05/09 04:00:04;;;;;;;5.75;4.57;;;17.90;52.00;;;;;;6192158;23;20172;-81
2021/05/09 04:02:30;;;;;;;5.78;4.90;;;17.90;51.90;;;;;;6192976;23;20146;-81
2021/05/09 04:04:57;;;;;;;5.90;4.30;;;17.90;52.00;;;;;;6192758;23;20141;-81
2021/05/09 04:07:23;;;;;;;4.80;4.25;;;17.90;52.00;;;;;;6192831;23;20312;-81
2021/05/09 04:09:49;;;;;;;5.32;4.15;;;17.90;52.00;;;;;;6167923;23;20154;-81
2021/05/09 04:12:16;;;;;;;5.78;4.22;;;17.90;52.00;;;;;;6193445;23;20533;-81
2021/05/09 04:14:42;;;;;;;5.38;4.32;;;17.90;51.90;;;;;;6168166;23;20154;-81
2021/05/09 04:17:09;;;;;;;5.57;4.55;;;17.90;52.00;;;;;;6192884;23;20158;-81
2021/05/09 04:19:39;;;;;;;5.53;4.25;;;17.80;51.90;;;;;;6167805;23;20180;-81
2021/05/09 04:22:06;;;;;;;5.78;4.45;;;17.90;51.90;;;;;;6192807;23;20146;-81
2021/05/09 04:24:33;;;;;;;4.43;3.83;;;17.90;51.90;;;;;;6220434;23;20130;-81
2021/05/09 04:26:59;;;;;;;5.70;4.32;;;17.90;51.80;;;;;;6195472;23;20186;-81
2021/05/09 04:29:26;;;;;;;5.05;4.10;;;17.90;51.90;;;;;;6171201;23;20520;-81
2021/05/09 04:31:53;;;;;;;6.20;4.70;;;17.90;51.80;;;;;;6172011;23;20150;-81
2021/05/09 04:34:21;;;;;;;5.25;4.28;;;17.90;51.90;;;;;;6196615;23;20130;-81
2021/05/09 04:36:47;;;;;;;6.53;4.60;;;17.90;51.90;;;;;;6194654;23;20134;-81
2021/05/09 04:39:14;;;;;;;5.93;4.20;;;17.90;51.80;;;;;;6195504;23;20443;-81
2021/05/09 04:41:48;;;;;;;7.03;4.65;;;17.90;51.70;;;;;;6170164;23;20525;-81
2021/05/09 04:44:14;;;;;;;4.97;4.30;;;17.90;51.80;;;;;;6194608;23;20629;-81
2021/05/09 04:46:42;;;;;;;5.07;4.45;;;17.90;51.70;;;;;;6195112;23;20142;-81
2021/05/09 04:49:08;;;;;;;5.07;4.22;;;17.90;51.70;;;;;;6169689;23;20573;-81
2021/05/09 04:51:34;;;;;;;5.60;4.45;;;17.90;51.50;;;;;;6194993;23;20134;-83
2021/05/09 04:54:00;;;;;;;5.05;4.05;;;17.90;51.70;;;;;;6194501;23;20135;-81
2021/05/09 04:56:27;;;;;;;5.85;4.32;;;17.90;51.80;;;;;;6221939;23;20202;-81
2021/05/09 04:58:54;;;;;;;5.05;4.20;;;17.90;51.70;;;;;;6221727;23;20141;-81
2021/05/09 05:01:20;;;;;;;5.22;4.15;;;17.90;51.80;;;;;;6221215;23;20220;-81
2021/05/09 05:03:47;;;;;;;6.95;4.70;;;17.90;51.90;;;;;;6169676;23;20154;-81
2021/05/09 05:06:15;;;;;;;6.90;4.40;;;17.90;51.80;;;;;;6169341;23;20146;-81
2021/05/09 05:08:43;;;;;;;4.85;4.10;;;17.90;51.80;;;;;;6170378;23;20198;-81
2021/05/09 05:11:10;;;;;;;6.60;4.60;;;17.90;51.90;;;;;;6169749;23;20189;-81
2021/05/09 05:13:37;;;;;;;5.20;4.03;;;17.90;51.90;;;;;;6168194;23;20906;-81
2021/05/09 05:16:05;;;;;;;5.40;4.18;;;17.80;51.90;;;;;;6199592;23;20209;-81
2021/05/09 05:18:31;;;;;;;5.43;4.78;;;17.80;51.80;;;;;;6200501;23;20473;-81
2021/05/09 05:21:04;;;;;;;6.10;4.30;;;17.80;51.90;;;;;;6200429;23;20174;-81
2021/05/09 05:23:33;;;;;;;5.72;4.30;;;17.90;51.90;;;;;;6153933;23;20520;-81
2021/05/09 05:26:01;;;;;;;4.72;3.90;;;17.80;51.80;;;;;;6177161;23;20184;-81
2021/05/09 05:28:27;;;;;;;5.68;4.13;;;17.90;51.90;;;;;;6175931;23;20127;-81
2021/05/09 05:30:54;;;;;;;5.18;4.28;;;17.90;51.80;;;;;;6151036;23;20153;-81
2021/05/09 05:33:30;;;;;;;4.93;4.25;;;17.90;51.80;;;;;;6199737;23;20173;-81
2021/05/09 05:36:04;;;;;;;6.53;4.70;;;17.90;51.90;;;;;;6149175;23;20207;-81
2021/05/09 05:38:32;;;;;;;6.15;4.38;;;17.80;51.80;;;;;;6174395;23;20145;-81
2021/05/09 05:40:58;;;;;;;4.95;4.05;;;17.80;51.90;;;;;;6174664;23;20174;-81
2021/05/09 05:43:31;;;;;;;5.38;4.10;;;17.90;51.90;;;;;;6175117;23;20227;-81
2021/05/09 05:45:58;;;;;;;5.57;4.32;;;17.80;51.90;;;;;;6177196;23;20162;-81
2021/05/09 05:48:24;;;;;;;5.13;4.30;;;17.90;51.80;;;;;;6176305;23;20466;-81
2021/05/09 05:50:52;;;;;;;6.65;4.50;;;17.90;51.80;;;;;;6175631;23;20566;-81
2021/05/09 05:53:37;;;;;;;7.18;4.30;;;17.90;51.60;;;;;;6150738;23;20497;-81
2021/05/09 05:56:05;;;;;;;5.32;4.25;;;17.90;51.70;;;;;;6195930;23;20157;-81
2021/05/09 05:58:33;;;;;;;6.13;4.32;;;17.90;51.70;;;;;;6226654;23;20565;-81
2021/05/09 06:01:02;;;;;;;5.68;4.75;;;17.90;51.60;;;;;;6174917;23;20173;-81
2021/05/09 06:03:30;;;;;;;5.78;4.45;;;17.90;51.60;;;;;;6198612;23;20190;-80
2021/05/09 06:05:57;;;;;;;5.07;4.20;;;17.90;51.60;;;;;;6174292;23;20271;-80
2021/05/09 06:08:23;;;;;;;5.40;4.43;;;17.90;51.60;;;;;;6174681;23;20186;-81
2021/05/09 06:10:49;;;;;;;5.50;4.45;;;17.90;51.60;;;;;;6175647;23;20135;-82
2021/05/09 06:13:21;;;;;;;4.80;4.07;;;17.90;51.60;;;;;;6175498;23;20161;-82
2021/05/09 06:15:46;;;;;;;5.50;4.35;;;17.90;51.60;;;;;;6200427;23;20597;-82
2021/05/09 06:18:12;;;;;;;5.63;4.57;;;17.90;51.50;;;;;;6150201;23;20141;-82
2021/05/09 06:20:38;;;;;;;5.68;4.10;;;17.90;51.50;;;;;;6150142;23;20196;-82
2021/05/09 06:23:05;;;;;;;6.05;4.60;;;17.90;51.50;;;;;;6175363;23;20130;-82
2021/05/09 06:25:38;;;;;;;4.90;4.05;;;17.90;52.20;;;;;;6175279;23;20146;-82
2021/05/09 06:28:03;;;;;;;6.20;4.32;;;17.90;51.40;;;;;;6151808;23;20142;-82
2021/05/09 06:30:33;;;;;;;5.88;4.50;;;17.90;51.50;;;;;;6175876;23;20176;-82
2021/05/09 06:32:59;;;;;;;5.40;4.40;;;17.90;51.60;;;;;;6200288;23;20161;-82
2021/05/09 06:35:27;;;;;;;6.82;4.47;;;17.90;51.70;;;;;;6149387;23;20233;-81
2021/05/09 06:37:54;;;;;;;4.95;4.30;;;17.90;51.40;;;;;;6198474;23;20225;-82
2021/05/09 06:40:23;;;;;;;5.97;4.85;;;17.90;51.60;;;;;;6227061;23;20172;-82
2021/05/09 06:43:09;;;;;;;5.75;4.18;;;17.90;51.50;;;;;;6202275;23;20202;-82
2021/05/09 06:45:35;;;;;;;6.20;4.43;;;17.90;51.60;;;;;;6199213;23;20218;-82
2021/05/09 06:48:07;;;;;;;5.18;4.30;;;17.90;51.30;;;;;;6201756;23;20181;-81
2021/05/09 06:50:34;;;;;;;6.25;4.30;;;17.80;51.60;;;;;;6222594;23;20157;-82
2021/05/09 06:53:03;;;;;;;6.28;4.18;;;17.80;51.60;;;;;;6166462;23;20146;-82
2021/05/09 06:55:30;;;;;;;6.53;4.85;;;17.80;51.40;;;;;;6169224;23;20460;-81
2021/05/09 07:01:02;;;;;;;6.25;4.20;;;17.90;51.80;;;;;;6208791;23;20181;-83
2021/05/09 07:04:16;;;;;;;5.45;4.28;;;17.80;51.80;;;;;;6203980;23;20558;-83
2021/05/09 07:06:42;;;;;;;5.13;3.97;;;17.80;51.90;;;;;;6108070;23;20203;-83
2021/05/09 07:09:10;;;;;;;6.28;4.40;;;17.80;51.80;;;;;;6085202;23;20140;-82
2021/05/09 07:12:44;;;;;;;;;;;;;;;;;;;;;
2021/05/09 07:15:47;;;;;;;6.10;4.50;;;17.80;51.80;;;;;;5982481;23;20174;-82
2021/05/09 07:18:29;;;;;;;6.05;4.43;;;17.80;51.70;;;;;;6027756;23;20161;-83
2021/05/09 07:21:56;;;;;;;5.88;4.78;;;17.80;51.70;;;;;;6050924;23;20230;-82
2021/05/09 07:24:45;;;;;;;5.57;4.18;;;17.80;51.70;;;;;;5971704;24;20211;-82
2021/05/09 07:27:19;;;;;;;5.25;4.20;;;17.80;51.90;;;;;;5971688;24;20155;-82
2021/05/09 07:29:59;;;;;;;4.82;3.90;;;17.80;51.90;;;;;;5970511;24;20170;-82
2021/05/09 07:32:40;;;;;;;6.18;4.78;;;17.80;51.80;;;;;;5995316;24;20147;-83
2021/05/09 07:35:15;;;;;;;5.22;4.10;;;17.80;51.80;;;;;;5994418;24;20159;-84
2021/05/09 07:38:03;;;;;;;5.65;4.10;;;17.80;51.80;;;;;;5970811;24;20159;-83
2021/05/09 07:40:36;;;;;;;5.75;4.00;;;17.80;51.70;;;;;;5991507;24;20218;-83
2021/05/09 07:43:11;;;;;;;6.75;4.25;;;17.80;51.70;;;;;;6019058;23;20181;-83
2021/05/09 07:45:42;;;;;;;4.45;4.05;;;17.80;51.70;;;;;;6024375;23;20142;-84
2021/05/09 07:48:17;;;;;;;6.00;4.38;;;17.80;51.60;;;;;;6016271;23;20155;-83
2021/05/09 07:54:38;;;;;;;5.38;4.50;;;17.80;51.30;;;;;;6113234;23;20175;-83
2021/05/09 08:00:30;;;;;;;6.18;4.35;;;17.80;51.50;;;;;;6171684;23;20191;-83
2021/05/09 08:03:13;;;;;;;6.45;4.70;;;17.90;51.70;;;;;;6226844;23;20158;-83
2021/05/09 08:06:04;;;;;;;5.60;4.35;;;17.90;51.60;;;;;;6203782;23;20130;-83
2021/05/09 08:08:53;;;;;;;5.10;4.18;;;17.80;51.70;;;;;;6181021;23;20202;-83
2021/05/09 08:12:09;;;;;;;5.28;4.50;;;17.80;51.60;;;;;;6200701;23;20142;-83
2021/05/09 08:42:16;;;;;;;5.50;3.80;;;17.80;51.40;;;;;;6197728;23;20169;-83
2021/05/09 08:44:53;;;;;;;6.18;4.30;;;17.80;51.30;;;;;;6172346;23;20561;-83
2021/05/09 08:47:42;;;;;;;5.40;4.30;;;17.80;51.10;;;;;;6150123;23;20154;-83
2021/05/09 08:50:22;;;;;;;5.80;4.53;;;17.90;51.30;;;;;;6176069;23;20138;-83
2021/05/09 08:53:06;;;;;;;5.63;4.40;;;17.90;51.30;;;;;;6173374;23;20231;-82
2021/05/09 08:58:58;;;;;;;6.00;4.47;;;17.90;51.00;;;;;;6198751;23;20139;-82
2021/05/09 09:01:39;;;;;;;5.78;4.40;;;17.90;51.10;;;;;;6200657;23;20163;-82
2021/05/09 09:04:12;;;;;;;5.28;4.40;;;17.90;50.90;;;;;;6125747;23;20451;-82
2021/05/09 09:07:23;;;;;;;6.50;4.22;;;17.90;50.90;;;;;;6126520;23;20171;-83
2021/05/09 09:10:30;;;;;;;5.78;4.50;;;18.00;50.90;;;;;;6171913;23;20190;-82
2021/05/09 09:16:20;;;;;;;6.93;4.50;;;17.90;51.20;;;;;;6198135;23;20141;-81
2021/05/09 09:18:47;;;;;;;5.32;4.47;;;17.90;50.90;;;;;;6171604;23;20158;-79
2021/05/09 09:21:30;;;;;;;5.03;4.32;;;18.00;51.00;;;;;;6150176;23;20174;-83
2021/05/09 09:24:07;;;;;;;7.05;4.70;;;18.00;51.00;;;;;;6200827;23;20127;-81
2021/05/09 11:58:14;;;;;;;9.57;4.43;;;18.30;50.80;;;;;;6158693;23;20202;-81
2021/05/09 12:01:30;;;;;;;6.95;4.18;;;18.30;50.90;;;;;;6101359;23;20206;-82
2021/05/09 12:39:14;;;;;;;;;;;;;;;;;;;;;
2021/05/09 12:45:08;;;;;;;5.38;4.38;;;18.30;51.00;;;;;;6173752;23;20138;-82
2021/05/09 13:01:53;;;;;;;6.10;4.50;;;18.30;50.90;;;;;;6026751;23;20225;-84
2021/05/09 13:04:48;;;;;;;6.13;4.43;;;18.30;50.90;;;;;;6001745;23;20158;-82
2021/05/09 13:07:58;;;;;;;5.55;4.18;;;18.30;50.80;;;;;;5985018;23;20262;-84
2021/05/09 13:10:29;;;;;;;7.60;4.32;;;18.30;50.80;;;;;;6010321;23;20161;-84
2021/05/09 13:13:15;;;;;;;10.75;4.97;;;18.30;50.70;;;;;;5985414;23;20142;-85
2021/05/09 13:19:25;;;;;;;6.72;4.35;;;18.40;50.90;;;;;;6032589;23;20142;-84
2021/05/09 13:22:35;;;;;;;6.93;4.03;;;18.30;51.00;;;;;;5984671;23;20242;-84
2021/05/09 13:25:51;;;;;;;8.68;4.05;;;18.40;51.00;;;;;;6007291;23;20181;-82
2021/05/09 13:28:54;;;;;;;7.78;4.43;;;18.40;50.80;;;;;;6004723;23;20397;-83
2021/05/09 13:31:31;;;;;;;6.93;4.57;;;18.40;50.80;;;;;;6002748;23;20192;-83
2021/05/09 13:33:57;;;;;;;6.85;4.53;;;18.40;50.70;;;;;;5977585;23;20189;-83
2021/05/09 13:36:25;;;;;;;6.53;4.40;;;18.40;50.90;;;;;;6011781;23;20185;-82
2021/05/09 13:39:22;;;;;;;7.13;4.53;;;18.40;50.90;;;;;;6112326;23;20171;-83
2021/05/09 13:49:49;;;;;;;6.15;4.40;;;18.50;50.80;;;;;;6192450;23;20424;-82
2021/05/09 13:52:31;;;;;;;5.75;4.78;;;18.50;51.00;;;;;;6209250;23;20126;-83
2021/05/09 13:55:36;;;;;;;7.55;4.75;;;18.50;51.00;;;;;;6162152;23;20488;-83
2021/05/09 13:58:17;;;;;;;6.03;4.15;;;18.50;51.00;;;;;;6236749;23;20197;-84
2021/05/09 14:00:48;;;;;;;10.43;4.93;;;18.50;50.80;;;;;;6188748;23;20212;-85
2021/05/09 14:06:55;;;;;;;9.65;4.80;;;18.60;51.00;;;;;;6237836;23;20161;-84
2021/05/09 14:09:38;;;;;;;7.35;4.15;;;18.60;51.00;;;;;;6207374;23;20150;-85
2021/05/09 14:15:47;;;;;;;6.15;4.05;;;18.60;51.20;;;;;;6239648;23;20122;-84
2021/05/09 14:18:21;;;;;;;11.85;4.72;;;18.60;51.60;;;;;;6154698;23;20536;-85
2021/05/09 14:24:52;;;;;;;9.85;5.03;;;18.60;51.60;;;;;;6175128;23;20192;-84
2021/05/09 14:27:54;;;;;;;8.57;4.65;;;18.60;51.30;;;;;;6151106;23;20151;-85
2021/05/09 14:30:37;;;;;;;9.95;4.40;;;18.60;51.90;;;;;;6149614;23;20147;-86
2021/05/09 14:33:24;;;;;;;6.43;4.25;;;18.50;51.60;;;;;;6174403;23;20155;-86
2021/05/09 14:36:17;;;;;;;7.75;4.60;;;18.60;51.50;;;;;;6147228;23;20144;-86
2021/05/09 14:54:57;;;;;;;8.52;4.88;;;18.60;51.70;;;;;;6055238;23;20311;-81
2021/05/09 14:57:30;;;;;;;8.88;4.85;;;18.60;51.70;;;;;;5975694;23;20179;-82
2021/05/09 15:00:14;;;;;;;8.45;4.70;;;18.70;51.70;;;;;;5952640;24;20263;-81
2021/05/09 15:02:54;;;;;;;7.70;4.70;;;18.70;51.50;;;;;;5952297;24;20156;-80
2021/05/09 15:05:36;;;;;;;7.63;4.85;;;18.70;51.70;;;;;;5974928;24;20147;-83
2021/05/09 15:11:49;;;;;;;7.32;4.60;;;18.70;51.70;;;;;;5999584;24;20166;-81
2021/05/09 15:17:57;;;;;;;8.50;5.00;;;18.70;51.80;;;;;;5996356;24;20231;-81
2021/05/09 15:20:55;;;;;;;11.50;4.88;;;18.70;51.90;;;;;;5950834;24;20328;-81
2021/05/09 15:23:32;;;;;;;13.45;4.50;;;18.70;52.20;;;;;;5991701;24;20159;-82
2021/05/09 15:26:06;;;;;;;8.00;4.68;;;18.70;52.40;;;;;;5966394;24;20147;-80
2021/05/09 15:29:03;;;;;;;12.18;5.43;;;18.70;52.30;;;;;;6079331;23;20165;-80
2021/05/09 15:32:18;;;;;;;9.88;4.65;;;18.80;52.30;;;;;;6176636;23;20203;-80
2021/05/09 15:35:06;;;;;;;9.93;4.75;;;18.80;52.30;;;;;;6082957;23;20150;-81
2021/05/09 15:37:33;;;;;;;13.15;5.38;;;18.80;52.60;;;;;;6058342;23;20213;-81
2021/05/09 15:47:14;;;;;;;11.27;4.57;;;18.80;52.50;;;;;;6052359;23;20712;-81
2021/05/09 15:53:53;;;;;;;10.32;5.30;;;18.90;52.80;;;;;;6055562;23;20157;-82
2021/05/09 15:56:44;;;;;;;8.60;4.63;;;18.80;52.60;;;;;;6030149;23;20202;-83
2021/05/09 15:59:33;;;;;;;8.13;4.85;;;18.80;52.70;;;;;;6029794;23;20218;-83
2021/05/09 16:06:00;;;;;;;10.27;4.85;;;18.90;53.00;;;;;;6057839;23;20253;-84
2021/05/09 16:08:26;;;;;;;9.68;4.95;;;19.00;52.80;;;;;;5949369;24;20135;-85
2021/05/09 16:10:53;;;;;;;10.30;5.38;;;18.90;52.80;;;;;;5938725;23;20182;-84
2021/05/09 16:13:35;;;;;;;10.48;4.80;;;18.90;52.90;;;;;;6004713;23;20151;-85
2021/05/09 16:16:06;;;;;;;14.45;5.85;;;18.90;52.70;;;;;;6005479;23;20212;-84
2021/05/09 16:18:36;;;;;;;9.00;4.70;;;18.90;53.10;;;;;;6004024;23;20155;-85
2021/05/09 16:21:08;;;;;;;6.63;4.43;;;18.90;53.10;;;;;;5980107;23;20693;-84
2021/05/09 16:23:41;;;;;;;12.02;4.72;;;18.80;52.80;;;;;;5980667;23;20158;-84
2021/05/09 16:26:21;;;;;;;13.43;4.90;;;18.80;53.10;;;;;;6002548;23;20158;-84
2021/05/09 16:28:48;;;;;;;13.05;5.68;;;18.80;53.20;;;;;;6003560;23;20226;-85
2021/05/09 16:31:46;;;;;;;14.55;5.60;;;18.70;53.10;;;;;;5981877;23;20245;-84
2021/05/09 16:34:23;;;;;;;9.43;5.15;;;18.80;52.90;;;;;;5978937;23;20468;-84
2021/05/09 16:37:17;;;;;;;12.95;5.32;;;18.80;52.90;;;;;;6003356;23;20299;-84
2021/05/09 16:40:22;;;;;;;13.45;4.88;;;18.80;53.70;;;;;;6026968;23;20162;-83
2021/05/09 16:42:48;;;;;;;14.80;5.18;;;18.80;53.10;;;;;;6002108;23;20227;-83
2021/05/09 16:46:04;;;;;;;12.32;4.97;;;18.80;53.00;;;;;;6074718;23;20182;-83
2021/05/09 16:48:32;;;;;;;14.18;5.20;;;18.80;53.30;;;;;;6173006;23;20143;-84
2021/05/09 16:51:04;;;;;;;10.57;4.70;;;18.80;53.40;;;;;;6147723;23;20167;-83
2021/05/09 16:54:37;;;;;;;;;;;;;;;;;;;;;
2021/05/09 17:01:09;;;;;;;10.68;5.45;;;18.80;53.70;;;;;;6173289;23;20214;-84
2021/05/09 17:03:47;;;;;;;13.13;5.10;;;18.70;53.70;;;;;;6172435;23;20158;-85
2021/05/09 17:13:19;;;;;;;13.52;5.40;;;18.80;53.40;;;;;;6052752;23;20161;-83
2021/05/09 17:15:57;;;;;;;10.90;4.70;;;18.80;53.30;;;;;;6032460;23;20464;-84
2021/05/09 17:22:10;;;;;;;12.25;5.88;;;18.70;53.60;;;;;;6053415;23;20197;-84
2021/05/09 17:25:03;;;;;;;12.63;5.40;;;18.70;53.60;;;;;;6029627;23;20158;-84
2021/05/09 17:27:39;;;;;;;13.55;5.22;;;18.70;53.50;;;;;;6030817;23;20599;-84
2021/05/09 17:30:20;;;;;;;12.38;5.10;;;18.70;53.50;;;;;;6006653;23;20154;-83
2021/05/09 17:39:25;;;;;;;11.95;4.93;;;18.70;53.60;;;;;;5964800;24;20201;-84
2021/05/09 17:42:15;;;;;;;9.70;4.35;;;18.70;53.80;;;;;;5944658;24;20175;-83
2021/05/09 17:44:45;;;;;;;13.60;5.18;;;18.70;53.90;;;;;;5945234;24;20159;-84
2021/05/09 17:54:12;;;;;;;15.48;5.30;;;18.70;54.10;;;;;;5996340;24;20155;-83
2021/05/09 18:03:30;;;;;;;18.52;5.18;;;18.60;54.00;;;;;;5995877;24;20322;-83
2021/05/09 18:06:53;;;;;;;;;;;;;;;;;;;;;
2021/05/09 18:13:14;;;;;;;;;;;;;;;;;;;;;
2021/05/09 18:25:03;;;;;;;11.32;5.20;;;18.60;54.10;;;;;;5985160;23;20169;-83
2021/05/09 18:27:55;;;;;;;13.18;5.20;;;18.60;54.10;;;;;;6131765;23;20155;-83
2021/05/09 18:30:40;;;;;;;9.90;5.68;;;18.60;54.10;;;;;;6147499;23;20132;-83
2021/05/09 18:33:06;;;;;;;10.38;4.80;;;18.60;54.20;;;;;;6121591;23;20230;-83
2021/05/09 18:35:45;;;;;;;9.13;5.18;;;18.50;54.00;;;;;;6121341;23;20139;-83
2021/05/09 18:38:49;;;;;;;7.63;4.90;;;18.60;54.10;;;;;;6122293;23;20143;-84
2021/05/09 18:41:47;;;;;;;7.68;5.22;;;18.60;54.20;;;;;;6171876;23;20180;-83
2021/05/09 18:44:43;;;;;;;10.75;4.80;;;18.60;54.30;;;;;;6145661;23;20209;-84
2021/05/09 18:47:28;;;;;;;7.38;4.70;;;18.50;54.30;;;;;;6182961;23;20194;-84
2021/05/09 18:54:06;;;;;;;9.63;4.63;;;18.50;54.10;;;;;;6109474;23;20163;-83
2021/05/09 19:00:07;;;;;;;7.65;4.70;;;18.50;54.60;;;;;;6016842;23;20198;-83
2021/05/09 19:09:54;;;;;;;12.68;5.45;;;18.40;54.30;;;;;;5940414;24;20171;-83
2021/05/09 19:12:36;;;;;;;14.23;5.60;;;18.50;54.50;;;;;;5918023;24;20202;-83
2021/05/09 19:15:37;;;;;;;15.13;5.43;;;18.50;54.40;;;;;;5940660;24;20164;-83
2021/05/09 19:18:06;;;;;;;7.70;5.03;;;18.40;54.40;;;;;;5886377;24;20186;-83
2021/05/09 19:20:38;;;;;;;9.93;5.18;;;18.50;54.60;;;;;;5841071;24;20178;-83
2021/05/09 19:23:30;;;;;;;11.30;5.28;;;18.40;54.80;;;;;;5840968;24;20283;-83
2021/05/09 19:26:21;;;;;;;8.90;5.05;;;18.40;54.50;;;;;;5862763;24;20154;-83
2021/05/09 19:28:52;;;;;;;8.40;4.60;;;18.50;54.50;;;;;;5862640;24;20161;-83
2021/05/09 19:31:21;;;;;;;7.20;4.85;;;18.40;54.60;;;;;;5841840;24;20162;-83
2021/05/09 19:34:00;;;;;;;5.75;4.90;;;18.50;54.40;;;;;;5864245;24;20166;-84
2021/05/09 19:36:27;;;;;;;11.73;5.18;;;18.40;54.30;;;;;;5871129;24;20157;-84
2021/05/09 19:39:02;;;;;;;13.48;5.30;;;18.40;54.50;;;;;;5871210;24;20154;-84
2021/05/09 19:44:56;;;;;;;9.98;4.72;;;18.40;54.60;;;;;;6144096;23;20140;-84